createdAt,value
2023-03-16T00:00:10.905Z,0
2023-03-16T00:01:27.206Z,0
2023-03-16T00:02:43.504Z,0
2023-03-16T00:03:59.785Z,0
2023-03-16T00:05:16.081Z,0
2023-03-16T00:06:32.381Z,0
2023-03-16T00:07:48.671Z,0
2023-03-16T00:09:04.968Z,0
2023-03-16T00:10:21.264Z,0
2023-03-16T00:11:36.582Z,0
2023-03-16T00:12:52.881Z,0
2023-03-16T00:14:09.161Z,0
2023-03-16T00:15:25.452Z,0
2023-03-16T00:16:41.763Z,0
2023-03-16T00:17:58.043Z,0
2023-03-16T00:19:14.347Z,0
2023-03-16T00:20:30.627Z,0
2023-03-16T00:21:46.936Z,0
2023-03-16T00:23:03.221Z,0
2023-03-16T00:24:19.531Z,0
2023-03-16T00:25:35.814Z,0
2023-03-16T00:26:52.105Z,0
2023-03-16T00:28:07.417Z,0
2023-03-16T00:29:23.709Z,0
2023-03-16T00:30:40.007Z,0
2023-03-16T00:31:56.299Z,0
2023-03-16T00:33:12.591Z,0
2023-03-16T00:34:28.880Z,0
2023-03-16T00:35:45.174Z,0
2023-03-16T00:37:01.469Z,0
2023-03-16T00:38:17.773Z,0
2023-03-16T00:39:34.064Z,0
2023-03-16T00:40:50.369Z,0
2023-03-16T00:42:06.666Z,0
2023-03-16T00:43:22.948Z,0
2023-03-16T00:44:38.268Z,0
2023-03-16T00:45:54.548Z,0
2023-03-16T00:47:10.843Z,0
2023-03-16T00:48:27.151Z,0
2023-03-16T00:49:43.442Z,0
2023-03-16T00:50:59.742Z,0
2023-03-16T00:52:16.036Z,0
2023-03-16T00:53:32.323Z,0
2023-03-16T00:54:48.605Z,0
2023-03-16T00:56:04.910Z,0
2023-03-16T00:57:21.210Z,0
2023-03-16T00:58:37.491Z,0
2023-03-16T00:59:53.794Z,0
2023-03-16T01:01:09.098Z,0
2023-03-16T01:02:25.395Z,0
2023-03-16T01:03:41.685Z,0
2023-03-16T01:04:57.989Z,0
2023-03-16T01:06:14.283Z,0
2023-03-16T01:07:30.575Z,0
2023-03-16T01:08:46.875Z,0
2023-03-16T01:10:03.172Z,0
2023-03-16T01:11:19.452Z,0
2023-03-16T01:12:35.748Z,0
2023-03-16T01:13:52.041Z,0
2023-03-16T01:15:08.333Z,0
2023-03-16T01:16:24.638Z,0
2023-03-16T01:17:39.937Z,0
2023-03-16T01:18:56.243Z,0
2023-03-16T01:20:12.537Z,0
2023-03-16T01:21:28.816Z,0
2023-03-16T01:22:45.130Z,0
2023-03-16T01:24:01.414Z,0
2023-03-16T01:25:17.704Z,0
2023-03-16T01:26:33.997Z,0
2023-03-16T01:27:50.292Z,0
2023-03-16T01:29:06.585Z,0
2023-03-16T01:30:22.881Z,0
2023-03-16T01:31:39.181Z,0
2023-03-16T01:32:55.474Z,0
2023-03-16T01:34:10.778Z,0
2023-03-16T01:35:27.081Z,0
2023-03-16T01:36:43.382Z,0
2023-03-16T01:37:59.658Z,0
2023-03-16T01:39:15.957Z,0
2023-03-16T01:40:32.263Z,0
2023-03-16T01:41:48.562Z,0
2023-03-16T01:43:04.851Z,0
2023-03-16T01:44:21.140Z,0
2023-03-16T01:45:37.422Z,0
2023-03-16T01:46:53.726Z,0
2023-03-16T01:48:10.011Z,0
2023-03-16T01:49:26.323Z,0
2023-03-16T01:50:41.635Z,0
2023-03-16T01:51:57.925Z,0
2023-03-16T01:53:14.223Z,0
2023-03-16T01:54:30.516Z,0
2023-03-16T01:55:46.798Z,0
2023-03-16T01:57:03.091Z,0
2023-03-16T01:58:19.384Z,0
2023-03-16T01:59:35.677Z,0
2023-03-16T02:00:51.976Z,0
2023-03-16T02:02:08.270Z,0
2023-03-16T02:03:24.558Z,0
2023-03-16T02:04:40.872Z,0
2023-03-16T02:05:57.156Z,0
2023-03-16T02:07:12.476Z,0
2023-03-16T02:08:28.758Z,0
2023-03-16T02:09:45.057Z,0
2023-03-16T02:11:01.347Z,0
2023-03-16T02:12:17.653Z,0
2023-03-16T02:13:33.937Z,0
2023-03-16T02:14:50.242Z,0
2023-03-16T02:16:06.530Z,0
2023-03-16T02:17:22.830Z,0
2023-03-16T02:18:39.111Z,0
2023-03-16T02:19:55.400Z,0
2023-03-16T02:21:11.714Z,0
2023-03-16T02:22:28.003Z,0
2023-03-16T02:23:43.316Z,0
2023-03-16T02:24:59.613Z,0
2023-03-16T02:26:15.892Z,0
2023-03-16T02:27:32.188Z,0
2023-03-16T02:28:48.476Z,0
2023-03-16T02:30:04.788Z,0
2023-03-16T02:31:21.064Z,0
2023-03-16T02:32:37.366Z,0
2023-03-16T02:33:53.662Z,0
2023-03-16T02:35:09.963Z,0
2023-03-16T02:36:26.250Z,0
2023-03-16T02:37:42.548Z,0
2023-03-16T02:38:58.848Z,0
2023-03-16T02:40:14.144Z,0
2023-03-16T02:41:30.443Z,0
2023-03-16T02:42:46.741Z,0
2023-03-16T02:44:03.027Z,0
2023-03-16T02:45:19.321Z,0
2023-03-16T02:46:35.628Z,0
2023-03-16T02:47:51.912Z,0
2023-03-16T02:49:08.208Z,0
2023-03-16T02:50:24.501Z,0
2023-03-16T02:51:40.804Z,0
2023-03-16T02:52:57.091Z,0
2023-03-16T02:54:13.380Z,0
2023-03-16T02:55:29.680Z,0
2023-03-16T02:56:44.984Z,0
2023-03-16T02:58:01.279Z,0
2023-03-16T02:59:17.571Z,0
2023-03-16T03:00:33.885Z,0
2023-03-16T03:01:50.166Z,0
2023-03-16T03:03:06.463Z,0
2023-03-16T03:04:22.755Z,0
2023-03-16T03:05:39.058Z,0
2023-03-16T03:06:55.349Z,0
2023-03-16T03:08:11.642Z,0
2023-03-16T03:09:27.928Z,0
2023-03-16T03:10:44.233Z,0
2023-03-16T03:12:00.528Z,0
2023-03-16T03:13:15.842Z,0
2023-03-16T03:14:32.119Z,0
2023-03-16T03:15:48.431Z,0
2023-03-16T03:17:04.725Z,0
2023-03-16T03:18:21.013Z,0
2023-03-16T03:19:37.316Z,0
2023-03-16T03:20:53.610Z,0
2023-03-16T03:22:09.902Z,0
2023-03-16T03:23:26.184Z,0
2023-03-16T03:24:42.479Z,0
2023-03-16T03:25:58.777Z,0
2023-03-16T03:27:15.067Z,0
2023-03-16T03:28:31.368Z,0
2023-03-16T03:29:46.680Z,0
2023-03-16T03:31:02.967Z,0
2023-03-16T03:32:19.266Z,0
2023-03-16T03:33:35.567Z,0
2023-03-16T03:36:08.138Z,0
2023-03-16T03:37:24.447Z,0
2023-03-16T03:38:40.736Z,0
2023-03-16T03:39:57.040Z,0
2023-03-16T03:41:13.333Z,0
2023-03-16T03:42:29.624Z,0
2023-03-16T03:43:45.906Z,0
2023-03-16T03:45:02.219Z,0
2023-03-16T03:46:17.528Z,0
2023-03-16T03:47:33.815Z,0
2023-03-16T03:48:50.119Z,0
2023-03-16T03:50:06.393Z,0
2023-03-16T03:51:22.691Z,0
2023-03-16T03:52:38.022Z,0
2023-03-16T03:53:54.307Z,0
2023-03-16T03:55:10.608Z,0
2023-03-16T03:56:26.886Z,0
2023-03-16T03:57:43.195Z,0
2023-03-16T03:58:59.490Z,0
2023-03-16T04:00:15.778Z,0
2023-03-16T04:01:32.067Z,0
2023-03-16T04:02:48.356Z,0
2023-03-16T04:04:04.669Z,0
2023-03-16T04:05:20.953Z,0
2023-03-16T04:06:37.248Z,0
2023-03-16T04:07:53.540Z,0
2023-03-16T04:09:08.850Z,0
2023-03-16T04:10:25.155Z,0
2023-03-16T04:11:41.449Z,0
2023-03-16T04:12:57.729Z,0
2023-03-16T04:14:14.025Z,0
2023-03-16T04:15:30.321Z,0
2023-03-16T04:16:46.616Z,0
2023-03-16T04:18:02.921Z,0
2023-03-16T04:19:19.203Z,0
2023-03-16T04:20:35.501Z,0
2023-03-16T04:21:51.803Z,0
2023-03-16T04:23:08.091Z,0
2023-03-16T04:24:24.392Z,0
2023-03-16T04:25:39.686Z,0
2023-03-16T04:26:55.994Z,0
2023-03-16T04:28:12.285Z,0
2023-03-16T04:29:28.000Z,0
2023-03-16T04:30:44.871Z,0
2023-03-16T04:32:01.176Z,0
2023-03-16T04:33:17.470Z,0
2023-03-16T04:34:33.751Z,0
2023-03-16T04:35:50.041Z,0
2023-03-16T04:37:06.348Z,0
2023-03-16T04:38:22.642Z,0
2023-03-16T04:39:38.940Z,0
2023-03-16T04:40:55.229Z,0
2023-03-16T04:42:10.527Z,0
2023-03-16T04:43:26.838Z,0
2023-03-16T04:44:43.118Z,0
2023-03-16T04:45:59.414Z,0
2023-03-16T04:47:15.713Z,0
2023-03-16T04:48:31.999Z,0
2023-03-16T04:49:48.292Z,0
2023-03-16T04:51:04.597Z,0
2023-03-16T04:52:20.891Z,0
2023-03-16T04:53:37.196Z,0
2023-03-16T04:54:53.427Z,1
2023-03-16T04:56:09.711Z,0
2023-03-16T04:57:25.965Z,1
2023-03-16T04:58:41.286Z,0
2023-03-16T04:59:57.584Z,0
2023-03-16T05:01:13.840Z,1
2023-03-16T05:02:30.122Z,0
2023-03-16T05:03:46.428Z,0
2023-03-16T05:05:02.675Z,3
2023-03-16T05:06:18.912Z,1
2023-03-16T05:07:35.159Z,1
2023-03-16T05:08:51.400Z,1
2023-03-16T05:10:07.629Z,2
2023-03-16T05:11:23.877Z,3
2023-03-16T05:12:40.104Z,4
2023-03-16T05:13:56.359Z,4
2023-03-16T05:15:11.600Z,4
2023-03-16T05:16:27.843Z,6
2023-03-16T05:17:44.084Z,12
2023-03-16T05:19:00.336Z,12
2023-03-16T05:20:16.572Z,12
2023-03-16T05:21:32.807Z,15
2023-03-16T05:22:49.053Z,20
2023-03-16T05:24:05.300Z,25
2023-03-16T05:25:21.542Z,29
2023-03-16T05:26:37.776Z,31
2023-03-16T05:27:54.006Z,38
2023-03-16T05:29:10.263Z,46
2023-03-16T05:30:26.491Z,53
2023-03-16T05:31:41.760Z,59
2023-03-16T05:32:57.983Z,67
2023-03-16T05:34:14.233Z,70
2023-03-16T05:35:30.479Z,82
2023-03-16T05:36:46.718Z,89
2023-03-16T05:38:02.950Z,96
2023-03-16T05:40:35.424Z,117
2023-03-16T05:41:51.672Z,121
2023-03-16T05:43:07.914Z,131
2023-03-16T05:44:24.150Z,137
2023-03-16T05:45:40.399Z,147
2023-03-16T05:46:56.626Z,160
2023-03-16T05:48:11.887Z,164
2023-03-16T05:49:28.120Z,178
2023-03-16T05:50:44.372Z,181
2023-03-16T05:52:00.606Z,188
2023-03-16T05:53:16.849Z,206
2023-03-16T05:54:33.086Z,207
2023-03-16T05:55:49.337Z,216
2023-03-16T05:57:05.582Z,224
2023-03-16T05:58:21.818Z,232
2023-03-16T05:59:38.043Z,245
2023-03-16T06:00:54.304Z,252
2023-03-16T06:02:10.527Z,258
2023-03-16T06:03:26.765Z,267
2023-03-16T06:04:42.034Z,280
2023-03-16T06:05:58.263Z,283
2023-03-16T06:07:14.515Z,291
2023-03-16T06:08:30.758Z,298
2023-03-16T06:09:46.997Z,303
2023-03-16T06:11:03.231Z,312
2023-03-16T06:12:19.481Z,320
2023-03-16T06:13:35.715Z,328
2023-03-16T06:14:51.954Z,330
2023-03-16T06:16:08.192Z,339
2023-03-16T06:17:24.431Z,342
2023-03-16T06:18:40.674Z,355
2023-03-16T06:19:56.912Z,360
2023-03-16T06:21:12.175Z,369
2023-03-16T06:22:28.415Z,367
2023-03-16T06:23:44.655Z,379
2023-03-16T06:25:00.891Z,383
2023-03-16T06:26:17.125Z,391
2023-03-16T06:27:33.376Z,395
2023-03-16T06:28:49.614Z,404
2023-03-16T06:30:05.851Z,408
2023-03-16T06:31:22.089Z,414
2023-03-16T06:32:38.337Z,424
2023-03-16T06:33:54.578Z,419
2023-03-16T06:35:10.814Z,424
2023-03-16T06:36:27.071Z,432
2023-03-16T06:37:42.312Z,442
2023-03-16T06:38:58.563Z,450
2023-03-16T06:40:14.794Z,470
2023-03-16T06:41:31.039Z,469
2023-03-16T06:42:47.270Z,535
2023-03-16T06:44:03.511Z,468
2023-03-16T06:45:19.763Z,404
2023-03-16T06:46:35.998Z,409
2023-03-16T06:47:52.246Z,384
2023-03-16T06:49:08.475Z,395
2023-03-16T06:50:24.714Z,421
2023-03-16T06:51:40.959Z,453
2023-03-16T06:52:57.205Z,529
2023-03-16T06:54:12.455Z,439
2023-03-16T06:55:28.694Z,458
2023-03-16T06:56:44.932Z,478
2023-03-16T06:58:01.165Z,440
2023-03-16T06:59:17.425Z,425
2023-03-16T07:00:33.647Z,502
2023-03-16T07:01:49.889Z,456
2023-03-16T07:03:06.133Z,461
2023-03-16T07:04:22.364Z,510
2023-03-16T07:05:38.618Z,513
2023-03-16T07:06:54.847Z,530
2023-03-16T07:08:11.104Z,544
2023-03-16T07:09:27.333Z,500
2023-03-16T07:10:42.597Z,533
2023-03-16T07:11:58.828Z,519
2023-03-16T07:13:15.079Z,541
2023-03-16T07:14:31.319Z,541
2023-03-16T07:15:47.552Z,543
2023-03-16T07:17:03.789Z,543
2023-03-16T07:18:20.035Z,541
2023-03-16T07:19:36.265Z,544
2023-03-16T07:20:52.521Z,543
2023-03-16T07:22:08.748Z,553
2023-03-16T07:23:24.984Z,564
2023-03-16T07:24:41.226Z,544
2023-03-16T07:25:57.483Z,549
2023-03-16T07:27:12.728Z,552
2023-03-16T07:28:28.964Z,565
2023-03-16T07:29:45.210Z,576
2023-03-16T07:31:01.453Z,684
2023-03-16T07:32:17.698Z,566
2023-03-16T07:33:33.938Z,346
2023-03-16T07:34:50.162Z,652
2023-03-16T07:36:06.416Z,610
2023-03-16T07:37:22.659Z,314
2023-03-16T07:38:38.897Z,564
2023-03-16T07:39:55.126Z,581
2023-03-16T07:41:11.369Z,584
2023-03-16T07:42:27.608Z,585
2023-03-16T07:43:42.863Z,589
2023-03-16T07:44:59.114Z,591
2023-03-16T07:46:15.356Z,592
2023-03-16T07:47:31.599Z,585
2023-03-16T07:48:47.831Z,596
2023-03-16T07:50:04.069Z,596
2023-03-16T07:51:20.318Z,592
2023-03-16T07:52:36.541Z,597
2023-03-16T07:53:52.788Z,600
2023-03-16T07:55:09.033Z,605
2023-03-16T07:56:25.266Z,602
2023-03-16T07:57:41.511Z,609
2023-03-16T07:58:57.748Z,606
2023-03-16T08:00:14.001Z,610
2023-03-16T08:01:29.246Z,611
2023-03-16T08:02:45.492Z,612
2023-03-16T08:04:01.719Z,615
2023-03-16T08:05:17.959Z,611
2023-03-16T08:06:34.198Z,616
2023-03-16T08:07:49.462Z,619
2023-03-16T08:09:05.714Z,616
2023-03-16T08:10:21.942Z,621
2023-03-16T08:11:38.183Z,624
2023-03-16T08:12:54.428Z,625
2023-03-16T08:14:10.675Z,625
2023-03-16T08:15:26.904Z,624
2023-03-16T08:16:43.152Z,622
2023-03-16T08:17:59.377Z,638
2023-03-16T08:19:15.632Z,646
2023-03-16T08:20:31.873Z,629
2023-03-16T08:21:48.105Z,598
2023-03-16T08:23:04.342Z,621
2023-03-16T08:24:19.615Z,630
2023-03-16T08:25:35.845Z,675
2023-03-16T08:26:52.088Z,575
2023-03-16T08:28:08.328Z,636
2023-03-16T08:29:24.560Z,635
2023-03-16T08:30:40.796Z,635
2023-03-16T08:31:57.036Z,637
2023-03-16T08:33:13.277Z,644
2023-03-16T08:34:29.525Z,641
2023-03-16T08:35:45.760Z,644
2023-03-16T08:37:02.010Z,647
2023-03-16T08:38:18.237Z,646
2023-03-16T08:39:34.494Z,645
2023-03-16T08:40:49.743Z,654
2023-03-16T08:42:05.977Z,701
2023-03-16T08:43:22.224Z,652
2023-03-16T08:44:38.450Z,614
2023-03-16T08:45:54.704Z,667
2023-03-16T08:47:10.944Z,647
2023-03-16T08:48:27.172Z,627
2023-03-16T08:49:43.417Z,662
2023-03-16T08:50:59.654Z,671
2023-03-16T08:52:15.893Z,677
2023-03-16T08:53:32.132Z,673
2023-03-16T08:54:48.380Z,684
2023-03-16T08:56:04.619Z,687
2023-03-16T08:57:19.879Z,679
2023-03-16T08:58:36.110Z,696
2023-03-16T08:59:52.362Z,691
2023-03-16T09:01:08.585Z,699
2023-03-16T09:02:24.835Z,694
2023-03-16T09:03:41.070Z,712
2023-03-16T09:04:57.315Z,711
2023-03-16T09:06:13.563Z,704
2023-03-16T09:07:29.802Z,719
2023-03-16T09:08:46.034Z,727
2023-03-16T09:10:02.272Z,753
2023-03-16T09:11:18.508Z,702
2023-03-16T09:12:34.764Z,743
2023-03-16T09:13:50.018Z,742
2023-03-16T09:15:06.248Z,750
2023-03-16T09:16:22.494Z,786
2023-03-16T09:17:38.733Z,766
2023-03-16T09:18:54.963Z,777
2023-03-16T09:20:11.199Z,781
2023-03-16T09:21:27.451Z,781
2023-03-16T09:22:43.697Z,784
2023-03-16T09:23:59.936Z,785
2023-03-16T09:25:16.163Z,791
2023-03-16T09:26:32.411Z,788
2023-03-16T09:27:48.656Z,802
2023-03-16T09:29:04.880Z,830
2023-03-16T09:30:20.147Z,769
2023-03-16T09:31:36.374Z,804
2023-03-16T09:32:52.626Z,838
2023-03-16T09:34:08.869Z,967
2023-03-16T09:35:25.103Z,681
2023-03-16T09:36:41.352Z,851
2023-03-16T09:37:57.584Z,812
2023-03-16T09:39:13.816Z,823
2023-03-16T09:40:30.050Z,834
2023-03-16T09:41:46.294Z,823
2023-03-16T09:43:02.533Z,798
2023-03-16T09:44:18.770Z,848
2023-03-16T09:45:35.024Z,961
2023-03-16T09:46:50.290Z,761
2023-03-16T09:48:06.521Z,728
2023-03-16T09:49:22.758Z,881
2023-03-16T09:50:38.000Z,886
2023-03-16T09:51:55.225Z,832
2023-03-16T09:53:11.473Z,882
2023-03-16T09:54:27.713Z,883
2023-03-16T09:55:43.951Z,740
2023-03-16T09:57:00.184Z,800
2023-03-16T09:58:16.433Z,975
2023-03-16T09:59:32.664Z,717
2023-03-16T10:00:48.913Z,873
2023-03-16T10:02:05.150Z,847
2023-03-16T10:03:20.397Z,884
2023-03-16T10:04:36.655Z,898
2023-03-16T10:05:52.876Z,491
2023-03-16T10:07:09.120Z,814
2023-03-16T10:08:25.376Z,1640
2023-03-16T10:09:41.611Z,1897
2023-03-16T10:10:57.844Z,1923
2023-03-16T10:12:14.085Z,1559
2023-03-16T10:13:30.329Z,1195
2023-03-16T10:14:46.554Z,2556
2023-03-16T10:16:02.801Z,3325
2023-03-16T10:17:19.038Z,3295
2023-03-16T10:18:35.285Z,3961
2023-03-16T10:19:50.531Z,4368
2023-03-16T10:21:06.770Z,3236
2023-03-16T10:22:23.017Z,3878
2023-03-16T10:23:39.252Z,4050
2023-03-16T10:24:55.491Z,3631
2023-03-16T10:26:11.739Z,4131
2023-03-16T10:27:27.983Z,4021
2023-03-16T10:28:44.219Z,4159
2023-03-16T10:30:00.463Z,4255
2023-03-16T10:31:16.703Z,4150
2023-03-16T10:32:32.938Z,4128
2023-03-16T10:33:49.177Z,4213
2023-03-16T10:35:05.425Z,4217
2023-03-16T10:36:20.674Z,4178
2023-03-16T10:37:36.908Z,4128
2023-03-16T10:38:53.152Z,4311
2023-03-16T10:40:09.401Z,4238
2023-03-16T10:41:25.630Z,4181
2023-03-16T10:42:41.869Z,4256
2023-03-16T10:43:58.111Z,4392
2023-03-16T10:45:14.350Z,4477
2023-03-16T10:46:30.594Z,4514
2023-03-16T10:47:46.836Z,4466
2023-03-16T10:49:03.082Z,4523
2023-03-16T10:50:19.312Z,4509
2023-03-16T10:51:35.545Z,4556
2023-03-16T10:52:50.809Z,4562
2023-03-16T10:54:07.043Z,4552
2023-03-16T10:55:23.287Z,4529
2023-03-16T10:56:39.529Z,4753
2023-03-16T10:57:55.756Z,4534
2023-03-16T10:59:11.996Z,4537
2023-03-16T11:00:28.245Z,4864
2023-03-16T11:01:44.481Z,4844
2023-03-16T11:03:00.717Z,4986
2023-03-16T11:04:16.963Z,4786
2023-03-16T11:05:33.200Z,4886
2023-03-16T11:06:49.441Z,4289
2023-03-16T11:08:05.669Z,4498
2023-03-16T11:09:20.941Z,4471
2023-03-16T11:10:37.178Z,4503
2023-03-16T11:11:53.410Z,4422
2023-03-16T11:13:09.639Z,4618
2023-03-16T11:14:25.894Z,4526
2023-03-16T11:15:42.137Z,4046
2023-03-16T11:16:58.372Z,4290
2023-03-16T11:18:14.596Z,3913
2023-03-16T11:19:30.854Z,4058
2023-03-16T11:20:47.077Z,4082
2023-03-16T11:22:03.322Z,3264
2023-03-16T11:23:19.567Z,3976
2023-03-16T11:24:35.795Z,4601
2023-03-16T11:25:51.061Z,4212
2023-03-16T11:27:07.302Z,3846
2023-03-16T11:28:23.549Z,3933
2023-03-16T11:29:39.772Z,4370
2023-03-16T11:30:56.016Z,3340
2023-03-16T11:32:12.252Z,4317
2023-03-16T11:33:28.495Z,3791
2023-03-16T11:34:44.725Z,3755
2023-03-16T11:36:00.983Z,4286
2023-03-16T11:37:17.211Z,4156
2023-03-16T11:38:33.444Z,5377
2023-03-16T11:39:49.696Z,3407
2023-03-16T11:41:05.925Z,5261
2023-03-16T11:42:21.187Z,4318
2023-03-16T11:43:37.425Z,5357
2023-03-16T11:44:53.658Z,5702
2023-03-16T11:46:09.904Z,5731
2023-03-16T11:47:26.155Z,5596
2023-03-16T11:48:42.392Z,5890
2023-03-16T11:49:58.628Z,6104
2023-03-16T11:51:14.869Z,6128
2023-03-16T11:52:31.110Z,6076
2023-03-16T11:53:47.337Z,5964
2023-03-16T11:55:03.591Z,6245
2023-03-16T11:56:19.826Z,6038
2023-03-16T11:57:36.058Z,6245
2023-03-16T11:58:51.321Z,5151
2023-03-16T12:00:07.549Z,6414
2023-03-16T12:01:23.793Z,4630
2023-03-16T12:02:40.024Z,5135
2023-03-16T12:03:56.276Z,6393
2023-03-16T12:05:12.516Z,6442
2023-03-16T12:06:28.752Z,6378
2023-03-16T12:07:44.984Z,6054
2023-03-16T12:09:01.234Z,6498
2023-03-16T12:10:17.470Z,7461
2023-03-16T12:11:33.711Z,5729
2023-03-16T12:12:49.943Z,6711
2023-03-16T12:14:06.180Z,7137
2023-03-16T12:15:21.439Z,5827
2023-03-16T12:16:37.675Z,6013
2023-03-16T12:17:53.915Z,6467
2023-03-16T12:19:10.160Z,6925
2023-03-16T12:20:26.386Z,6853
2023-03-16T12:21:42.625Z,6914
2023-03-16T12:22:57.896Z,7087
2023-03-16T12:24:14.138Z,6548
2023-03-16T12:25:30.379Z,7530
2023-03-16T12:26:46.617Z,6937
2023-03-16T12:28:02.850Z,6988
2023-03-16T12:29:19.084Z,7067
2023-03-16T12:30:35.336Z,7058
2023-03-16T12:31:51.562Z,7589
2023-03-16T12:33:07.808Z,11154
2023-03-16T12:34:24.036Z,2137
2023-03-16T12:35:40.288Z,6254
2023-03-16T12:36:56.523Z,6817
2023-03-16T12:38:12.751Z,7510
2023-03-16T12:39:28.008Z,6802
2023-03-16T12:42:00.481Z,7683
2023-03-16T12:43:16.731Z,7744
2023-03-16T12:44:32.965Z,7645
2023-03-16T12:45:49.199Z,7390
2023-03-16T12:47:05.437Z,7515
2023-03-16T12:48:21.690Z,7634
2023-03-16T12:49:37.915Z,7285
2023-03-16T12:50:54.150Z,7801
2023-03-16T12:52:10.390Z,7366
2023-03-16T12:53:26.636Z,7887
2023-03-16T12:54:42.884Z,7091
2023-03-16T12:55:58.131Z,7777
2023-03-16T12:57:14.360Z,7877
2023-03-16T12:58:30.617Z,7744
2023-03-16T12:59:46.853Z,7618
2023-03-16T13:01:03.090Z,7263
2023-03-16T13:02:19.317Z,7702
2023-03-16T13:03:35.560Z,7924
2023-03-16T13:04:51.812Z,7817
2023-03-16T13:06:08.050Z,8292
2023-03-16T13:07:24.273Z,8014
2023-03-16T13:08:40.519Z,7669
2023-03-16T13:09:56.760Z,8308
2023-03-16T13:11:13.004Z,8229
2023-03-16T13:12:28.247Z,8115
2023-03-16T13:13:44.493Z,7370
2023-03-16T13:15:00.736Z,7832
2023-03-16T13:16:16.970Z,8243
2023-03-16T13:17:33.204Z,7910
2023-03-16T13:18:49.459Z,7822
2023-03-16T13:20:05.686Z,8101
2023-03-16T13:21:21.921Z,7724
2023-03-16T13:22:38.167Z,8404
2023-03-16T13:23:54.398Z,8574
2023-03-16T13:25:10.627Z,7338
2023-03-16T13:26:26.885Z,7319
2023-03-16T13:27:43.116Z,8831
2023-03-16T13:28:58.364Z,7916
2023-03-16T13:30:14.611Z,7592
2023-03-16T13:31:30.858Z,8793
2023-03-16T13:32:47.083Z,7349
2023-03-16T13:34:03.324Z,8329
2023-03-16T13:35:19.566Z,8756
2023-03-16T13:36:35.810Z,8404
2023-03-16T13:37:52.042Z,8510
2023-03-16T13:39:08.275Z,8616
2023-03-16T13:40:24.517Z,9161
2023-03-16T13:41:40.771Z,7758
2023-03-16T13:42:57.010Z,8711
2023-03-16T13:44:13.238Z,8736
2023-03-16T13:45:28.501Z,8734
2023-03-16T13:46:44.726Z,8944
2023-03-16T13:48:00.965Z,8687
2023-03-16T13:49:17.218Z,8773
2023-03-16T13:50:33.443Z,9029
2023-03-16T13:51:49.697Z,9201
2023-03-16T13:53:05.920Z,8704
2023-03-16T13:54:22.173Z,7972
2023-03-16T13:55:38.402Z,9091
2023-03-16T13:56:54.648Z,8749
2023-03-16T13:58:10.889Z,8579
2023-03-16T13:59:27.117Z,9020
2023-03-16T14:00:43.358Z,9013
2023-03-16T14:01:58.614Z,8711
2023-03-16T14:03:14.856Z,8518
2023-03-16T14:04:31.099Z,8676
2023-03-16T14:05:47.342Z,8867
2023-03-16T14:07:03.584Z,8692
2023-03-16T14:08:19.805Z,8454
2023-03-16T14:09:36.047Z,7849
2023-03-16T14:10:52.305Z,8635
2023-03-16T14:12:08.538Z,8421
2023-03-16T14:13:24.768Z,8775
2023-03-16T14:14:41.004Z,8988
2023-03-16T14:15:57.242Z,8799
2023-03-16T14:17:13.492Z,8913
2023-03-16T14:18:28.749Z,8972
2023-03-16T14:19:44.982Z,9010
2023-03-16T14:21:01.217Z,8385
2023-03-16T14:22:17.468Z,8659
2023-03-16T14:23:33.697Z,8948
2023-03-16T14:24:49.956Z,8913
2023-03-16T14:26:06.188Z,8981
2023-03-16T14:27:22.417Z,9295
2023-03-16T14:29:54.904Z,8140
2023-03-16T14:31:11.135Z,8986
2023-03-16T14:32:27.379Z,8786
2023-03-16T14:33:43.615Z,8735
2023-03-16T14:34:58.872Z,8764
2023-03-16T14:36:15.116Z,8757
2023-03-16T14:37:31.356Z,8672
2023-03-16T14:38:47.580Z,8740
2023-03-16T14:40:03.834Z,8848
2023-03-16T14:41:20.062Z,8598
2023-03-16T14:42:36.312Z,8750
2023-03-16T14:43:52.560Z,8592
2023-03-16T14:45:08.780Z,8629
2023-03-16T14:46:25.017Z,8642
2023-03-16T14:47:41.256Z,8465
2023-03-16T14:48:57.510Z,7954
2023-03-16T14:50:13.749Z,11826
2023-03-16T14:51:28.990Z,3705
2023-03-16T14:52:45.243Z,8128
2023-03-16T14:54:01.482Z,8260
2023-03-16T14:55:17.714Z,8182
2023-03-16T14:56:33.963Z,7883
2023-03-16T14:57:50.198Z,9899
2023-03-16T14:59:06.428Z,6316
2023-03-16T15:00:22.680Z,7657
2023-03-16T15:01:38.911Z,8200
2023-03-16T15:02:55.153Z,8241
2023-03-16T15:04:11.383Z,8505
2023-03-16T15:05:27.623Z,8641
2023-03-16T15:06:43.872Z,6507
2023-03-16T15:07:59.128Z,7970
2023-03-16T15:09:15.375Z,8020
2023-03-16T15:10:31.609Z,8581
2023-03-16T15:11:47.845Z,8092
2023-03-16T15:13:04.080Z,7083
2023-03-16T15:14:20.334Z,6401
2023-03-16T15:15:36.561Z,8156
2023-03-16T15:16:52.811Z,7418
2023-03-16T15:18:09.049Z,8067
2023-03-16T15:19:25.284Z,6105
2023-03-16T15:20:41.523Z,7746
2023-03-16T15:21:57.773Z,7753
2023-03-16T15:23:14.004Z,7104
2023-03-16T15:24:29.250Z,8065
2023-03-16T15:25:45.490Z,7520
2023-03-16T15:27:01.743Z,6160
2023-03-16T15:28:17.965Z,7604
2023-03-16T15:29:34.216Z,5882
2023-03-16T15:30:50.461Z,6093
2023-03-16T15:32:06.684Z,6832
2023-03-16T15:33:22.924Z,9673
2023-03-16T15:34:39.170Z,2201
2023-03-16T15:35:55.403Z,2019
2023-03-16T15:37:11.651Z,5407
2023-03-16T15:38:27.890Z,6103
2023-03-16T15:39:44.134Z,6127
2023-03-16T15:40:59.400Z,3204
2023-03-16T15:42:15.627Z,3722
2023-03-16T15:43:31.862Z,2921
2023-03-16T15:44:48.116Z,1949
2023-03-16T15:46:04.337Z,3105
2023-03-16T15:47:20.586Z,2339
2023-03-16T15:48:36.822Z,1324
2023-03-16T15:49:53.058Z,1510
2023-03-16T15:51:09.285Z,1384
2023-03-16T15:52:25.524Z,1187
2023-03-16T15:53:41.781Z,1189
2023-03-16T15:54:58.013Z,1028
2023-03-16T15:56:14.252Z,891
2023-03-16T15:57:29.522Z,864
2023-03-16T15:58:45.746Z,824
2023-03-16T16:00:01.985Z,789
2023-03-16T16:01:18.231Z,752
2023-03-16T16:02:34.464Z,731
2023-03-16T16:03:50.705Z,707
2023-03-16T16:05:06.950Z,661
2023-03-16T16:06:23.181Z,630
2023-03-16T16:07:39.429Z,621
2023-03-16T16:08:55.662Z,619
2023-03-16T16:10:11.886Z,608
2023-03-16T16:11:28.148Z,585
2023-03-16T16:12:44.374Z,568
2023-03-16T16:13:59.624Z,548
2023-03-16T16:15:15.868Z,529
2023-03-16T16:16:32.107Z,509
2023-03-16T16:17:48.338Z,476
2023-03-16T16:19:04.581Z,448
2023-03-16T16:20:20.814Z,416
2023-03-16T16:21:37.050Z,395
2023-03-16T16:22:53.302Z,374
2023-03-16T16:24:09.526Z,364
2023-03-16T16:25:25.792Z,345
2023-03-16T16:26:42.015Z,338
2023-03-16T16:27:58.245Z,351
2023-03-16T16:29:14.505Z,332
2023-03-16T16:30:29.754Z,308
2023-03-16T16:31:45.983Z,286
2023-03-16T16:33:02.223Z,284
2023-03-16T16:34:18.461Z,258
2023-03-16T16:35:34.702Z,242
2023-03-16T16:36:50.934Z,230
2023-03-16T16:38:06.205Z,220
2023-03-16T16:39:22.437Z,210
2023-03-16T16:40:38.681Z,197
2023-03-16T16:41:54.914Z,194
2023-03-16T16:43:11.170Z,183
2023-03-16T16:44:27.411Z,178
2023-03-16T16:45:43.650Z,173
2023-03-16T16:46:59.875Z,163
2023-03-16T16:48:16.117Z,148
2023-03-16T16:49:32.355Z,137
2023-03-16T16:50:48.605Z,127
2023-03-16T16:52:04.845Z,121
2023-03-16T16:53:21.079Z,116
2023-03-16T16:54:36.324Z,105
2023-03-16T16:55:52.561Z,99
2023-03-16T16:57:08.821Z,92
2023-03-16T16:58:25.052Z,84
2023-03-16T16:59:41.293Z,80
2023-03-16T17:00:57.536Z,74
2023-03-16T17:02:13.759Z,67
2023-03-16T17:03:30.014Z,65
2023-03-16T17:04:46.245Z,56
2023-03-16T17:06:02.492Z,45
2023-03-16T17:07:18.726Z,40
2023-03-16T17:08:34.956Z,35
2023-03-16T17:09:51.207Z,36
2023-03-16T17:11:07.572Z,34
2023-03-16T17:12:23.809Z,27
2023-03-16T17:13:40.033Z,22
2023-03-16T17:14:56.275Z,22
2023-03-16T17:16:12.530Z,18
2023-03-16T17:17:28.765Z,15
2023-03-16T17:18:45.012Z,17
2023-03-16T17:20:01.252Z,15
2023-03-16T17:21:17.474Z,9
2023-03-16T17:22:33.717Z,7
2023-03-16T17:23:49.960Z,10
2023-03-16T17:25:06.203Z,6
2023-03-16T17:26:22.446Z,5
2023-03-16T17:27:37.690Z,7
2023-03-16T17:28:53.956Z,5
2023-03-16T17:30:10.168Z,6
2023-03-16T17:31:26.407Z,3
2023-03-16T17:32:42.651Z,2
2023-03-16T17:33:58.902Z,2
2023-03-16T17:35:15.143Z,1
2023-03-16T17:36:31.376Z,1
2023-03-16T17:37:47.623Z,1
2023-03-16T17:39:03.902Z,0
2023-03-16T17:40:20.200Z,0
2023-03-16T17:41:36.439Z,1
2023-03-16T17:42:52.741Z,0
2023-03-16T17:44:08.039Z,0
2023-03-16T17:45:24.347Z,0
2023-03-16T17:46:40.647Z,0